Accueil
METAR-TAF:

METAR-TAF

Aéroports :

Aéroport international de Kota Kinabalu

Kota Kinabalu, Malaisie

latitude: 05-56N, longitude: 116-03E, altitude: 3 m

Observation

Le bulletin a été fait il y a 22 minutes, à 02:00 UTC
Vent 10 kt de sud-ouest, variant entre sud et ouest
Température 31°C
Humidité 75%
Pression 1010 hPa
Visibilité 10 km ou plus
Quelques nuages à une hauteur de 1400 ft

METAR: WBKK 220200Z 22010KT 180V260 9999 FEW014 31/26 Q1010 NOSIG

Heure: 10:22 (02:22 UTC)

Prévision

Le bulletin a été fait il y a 3 heures et 22 minutes, à 23:00 UTC
Prévision valable du 22 à 00 UTC au 23 à 00 UTC
Vent 6 kt de sud-ouest
Visibilité 10 km ou plus
Quelques nuages à une hauteur de 1500 ft
Evoluant progressivement
du 22 à 12 UTC au 22 à 14 UTC
Vent 6 kt de est/sud-est

TAF: WBKK 212300Z 2200/2300 22006KT 9999 FEW015 BECMG 2212/2214 12006KT

Observations et prévisions météorologiques de plus de 4000 aéroports (messages METAR et TAF).

Les stations disponibles sont représentées par des disques jaunes et rouges sur la carte.

Passer la souris dessus pour voir le nom de la station.

Cliquer dessus pour voir les observations et prévisions météorologiques.

Pour changer de carte: cliquez sur les boutons verts avec une croix noire pour zoomer, sur le bouton vert avec un tiret pour effectuer un zoom arrière, ou sur les flèches vertes pour les cartes adjacentes.


METAR-TAF: